Time;durP1;ratioP1;P1;durP2;ratioP2;P2;SDS_P1;SDS_P2;PMS_P1;PMS_P2;Temp;Humidity;BMP_temperature;BMP_pressure;BME280_temperature;BME280_humidity;BME280_pressure;Samples;Min_cycle;Max_cycle;Signal;HPM_P1;HPM_P2
2022/12/13 00:01:58;;;;;;;43.37;18.20;;;-2.10;99.90;;;;;;10321591;28;20041;-82
2022/12/13 00:06:59;;;;;;;53.10;21.87;;;-2.10;99.90;;;;;;10316289;28;20034;-87
2022/12/13 00:11:59;;;;;;;46.93;19.13;;;-2.20;99.90;;;;;;10321632;28;20038;-85
2022/12/13 00:17:00;;;;;;;44.77;19.03;;;-2.20;99.90;;;;;;10322050;28;20114;-83
2022/12/13 00:22:00;;;;;;;40.13;17.37;;;-2.20;99.90;;;;;;10319358;28;20040;-85
2022/12/13 00:27:01;;;;;;;38.90;17.57;;;-2.20;99.90;;;;;;10321674;28;20032;-85
2022/12/13 00:32:02;;;;;;;35.93;16.60;;;-2.20;99.90;;;;;;10319034;28;20026;-85
2022/12/13 00:37:02;;;;;;;31.30;13.70;;;-2.30;99.90;;;;;;10320706;28;20046;-85
2022/12/13 00:42:03;;;;;;;38.07;15.03;;;-2.30;99.90;;;;;;10320091;28;20168;-84
2022/12/13 00:47:04;;;;;;;28.80;13.67;;;-2.30;99.90;;;;;;10320206;28;20034;-82
2022/12/13 00:52:04;;;;;;;22.97;10.20;;;-2.40;99.90;;;;;;10319853;28;20019;-84
2022/12/13 00:57:05;;;;;;;28.63;11.60;;;-2.40;99.90;;;;;;10319298;28;20733;-85
2022/12/13 01:02:05;;;;;;;24.67;10.70;;;-2.50;99.90;;;;;;10319136;28;20093;-82
2022/12/13 01:07:06;;;;;;;25.67;12.53;;;-2.50;99.90;;;;;;10319963;28;20039;-82
2022/12/13 01:12:10;;;;;;;28.43;13.80;;;-2.50;99.90;;;;;;10319463;28;20031;-85
2022/12/13 01:17:10;;;;;;;24.80;10.77;;;-2.50;99.90;;;;;;10319496;28;20038;-82
2022/12/13 01:22:11;;;;;;;25.80;11.33;;;-2.60;99.90;;;;;;10318299;28;20026;-82
2022/12/13 01:27:11;;;;;;;28.43;12.83;;;-2.60;99.90;;;;;;10319263;28;20151;-82
2022/12/13 01:32:12;;;;;;;23.93;11.50;;;-2.70;99.90;;;;;;10319644;28;20062;-82
2022/12/13 01:37:12;;;;;;;25.90;11.10;;;-2.70;99.90;;;;;;10320566;28;20844;-85
2022/12/13 01:42:13;;;;;;;26.90;11.60;;;-2.70;99.90;;;;;;10319779;28;20054;-84
2022/12/13 01:47:17;;;;;;;24.30;11.80;;;-2.70;99.90;;;;;;10317880;28;20769;-85
2022/12/13 01:52:17;;;;;;;26.87;11.57;;;-2.70;99.90;;;;;;10315203;28;20109;-82
2022/12/13 01:57:20;;;;;;;31.00;11.93;;;-2.70;99.90;;;;;;10317174;28;20034;-82
2022/12/13 02:02:21;;;;;;;30.20;13.23;;;-2.70;99.90;;;;;;10317829;28;20022;-82
2022/12/13 02:07:28;;;;;;;25.57;10.00;;;-2.80;99.90;;;;;;10318037;28;20034;-83
2022/12/13 02:12:31;;;;;;;31.53;13.13;;;-2.80;99.90;;;;;;10317483;28;20040;-84
2022/12/13 02:17:57;;;;;;;21.97;10.13;;;-2.80;99.90;;;;;;10316458;28;20038;-82
2022/12/13 02:23:23;;;;;;;27.92;11.63;;;-2.80;99.90;;;;;;10315768;28;20096;-84
2022/12/13 02:28:51;;;;;;;26.65;12.43;;;-2.90;99.90;;;;;;10316895;28;20492;-82
2022/12/13 02:34:05;;;;;;;43.00;18.57;;;-2.90;99.90;;;;;;10316191;28;20057;-82
2022/12/13 02:39:22;;;;;;;47.20;18.03;;;-2.90;99.90;;;;;;10314144;28;20054;-85
2022/12/13 02:44:31;;;;;;;29.60;12.37;;;-2.90;99.90;;;;;;10315489;28;20034;-83
2022/12/13 02:49:35;;;;;;;26.27;12.03;;;-2.90;99.90;;;;;;10314762;28;20030;-86
2022/12/13 02:54:36;;;;;;;36.93;15.70;;;-2.90;99.90;;;;;;10314785;28;20045;-86
2022/12/13 02:59:39;;;;;;;28.80;13.23;;;-2.90;99.90;;;;;;10315909;28;20372;-85
2022/12/13 03:11:01;;;;;;;35.20;13.97;;;-2.90;99.90;;;;;;10324060;28;20490;-83
2022/12/13 03:16:33;;;;;;;26.37;11.17;;;-2.90;99.90;;;;;;10323340;28;21716;-83
2022/12/13 03:21:46;;;;;;;26.67;12.73;;;-2.90;99.90;;;;;;10308691;28;20072;-82
2022/12/13 03:26:49;;;;;;;26.60;11.50;;;-2.90;99.90;;;;;;10322818;28;20030;-85
2022/12/13 03:31:49;;;;;;;33.30;14.17;;;-2.90;99.90;;;;;;10319690;28;20066;-86
2022/12/13 03:36:51;;;;;;;35.10;15.73;;;-2.90;99.90;;;;;;10324528;28;20129;-82
2022/12/13 03:41:52;;;;;;;29.23;13.20;;;-2.90;99.90;;;;;;10323085;28;20038;-81
2022/12/13 03:46:52;;;;;;;33.43;14.67;;;-2.90;99.90;;;;;;10323935;28;20030;-81
2022/12/13 03:51:53;;;;;;;30.83;14.20;;;-2.80;99.90;;;;;;10323299;28;20361;-81
2022/12/13 03:56:53;;;;;;;36.20;16.20;;;-2.80;99.90;;;;;;10322476;28;20736;-82
2022/12/13 04:01:54;;;;;;;32.93;14.20;;;-2.80;99.90;;;;;;10326201;28;20121;-82
2022/12/13 04:06:54;;;;;;;30.73;14.20;;;-2.80;99.90;;;;;;10320343;28;20109;-86
2022/12/13 04:17:14;;;;;;;36.23;16.63;;;-2.80;99.90;;;;;;10322207;28;20089;-85
2022/12/13 04:22:14;;;;;;;31.43;13.93;;;-2.80;99.90;;;;;;10322736;28;20114;-82
2022/12/13 04:27:15;;;;;;;32.60;15.53;;;-2.80;99.90;;;;;;10324412;28;20034;-82
2022/12/13 04:32:15;;;;;;;38.43;17.17;;;-2.90;99.90;;;;;;10322652;28;20054;-82
2022/12/13 04:37:16;;;;;;;40.23;16.67;;;-2.80;99.90;;;;;;10322498;28;20050;-84
2022/12/13 04:42:16;;;;;;;35.17;16.23;;;-2.80;99.90;;;;;;10321984;28;20042;-81
2022/12/13 04:47:17;;;;;;;34.07;14.30;;;-2.80;99.90;;;;;;10322037;28;20754;-82
2022/12/13 04:52:17;;;;;;;31.93;15.10;;;-2.80;99.90;;;;;;10322818;28;20038;-80
2022/12/13 04:57:18;;;;;;;40.77;17.10;;;-2.80;99.90;;;;;;10322809;28;20043;-85
2022/12/13 05:02:18;;;;;;;48.57;18.60;;;-2.80;99.90;;;;;;10324866;28;20045;-82
2022/12/13 05:07:19;;;;;;;45.77;19.30;;;-2.80;99.90;;;;;;10321107;28;20518;-85
2022/12/13 05:12:19;;;;;;;39.63;18.70;;;-2.70;99.90;;;;;;10318286;28;20132;-82
2022/12/13 05:17:20;;;;;;;33.03;15.87;;;-2.80;99.90;;;;;;10319076;28;20042;-82
2022/12/13 05:22:21;;;;;;;38.50;15.17;;;-2.80;99.90;;;;;;10322516;28;20026;-84
2022/12/13 05:27:22;;;;;;;35.93;17.20;;;-2.80;99.90;;;;;;10321482;28;20034;-85
2022/12/13 05:32:22;;;;;;;36.83;16.27;;;-2.80;99.90;;;;;;10319498;28;20441;-84
2022/12/13 05:37:23;;;;;;;38.73;17.07;;;-2.80;99.90;;;;;;10309333;28;20049;-81
2022/12/13 05:42:23;;;;;;;46.47;17.87;;;-2.80;99.90;;;;;;10321409;28;20033;-81
2022/12/13 05:47:24;;;;;;;39.57;19.60;;;-2.80;99.90;;;;;;10322626;28;20621;-85
2022/12/13 05:52:24;;;;;;;63.60;27.10;;;-2.80;99.90;;;;;;10322093;28;20379;-81
2022/12/13 05:57:25;;;;;;;51.47;24.50;;;-2.80;99.90;;;;;;10321533;28;20034;-81
2022/12/13 06:02:25;;;;;;;43.37;17.50;;;-2.80;99.90;;;;;;10321982;28;20038;-82
2022/12/13 06:07:26;;;;;;;40.93;18.77;;;-2.80;99.90;;;;;;10322087;28;20041;-81
2022/12/13 06:12:27;;;;;;;43.93;21.50;;;-2.90;99.90;;;;;;10321033;28;20772;-83
2022/12/13 06:17:32;;;;;;;47.40;21.90;;;-2.90;99.90;;;;;;10321269;28;20038;-81
2022/12/13 06:22:32;;;;;;;50.97;22.93;;;-2.90;99.90;;;;;;10308045;28;20041;-81
2022/12/13 06:27:33;;;;;;;44.70;19.70;;;-2.90;99.90;;;;;;10321247;28;20030;-84
2022/12/13 06:32:33;;;;;;;60.47;26.00;;;-2.90;99.90;;;;;;10321252;28;20054;-88
2022/12/13 06:37:34;;;;;;;68.83;29.33;;;-2.90;99.90;;;;;;10320962;28;20064;-83
2022/12/13 06:42:34;;;;;;;66.90;27.30;;;-2.90;99.90;;;;;;10320105;28;20018;-81
2022/12/13 06:47:35;;;;;;;53.67;21.90;;;-2.90;99.90;;;;;;10321084;28;20565;-81
2022/12/13 06:52:35;;;;;;;50.20;21.93;;;-2.90;99.90;;;;;;10320937;28;20030;-81
2022/12/13 06:57:36;;;;;;;38.10;17.97;;;-2.90;99.90;;;;;;10320430;28;20034;-81
2022/12/13 07:02:37;;;;;;;69.70;28.23;;;-3.00;99.90;;;;;;10320412;28;20206;-81
2022/12/13 07:07:37;;;;;;;70.60;30.90;;;-3.00;99.90;;;;;;10320356;28;20041;-85
2022/12/13 07:12:38;;;;;;;53.93;24.23;;;-2.90;99.90;;;;;;10320314;28;20031;-85
2022/12/13 07:17:39;;;;;;;51.87;25.70;;;-2.90;99.90;;;;;;10320496;28;20050;-81
2022/12/13 07:22:39;;;;;;;56.57;24.00;;;-2.90;99.90;;;;;;10320247;28;20152;-86
2022/12/13 07:27:40;;;;;;;64.20;26.73;;;-2.90;99.90;;;;;;10318589;28;20038;-81
2022/12/13 07:32:40;;;;;;;65.63;25.60;;;-2.90;99.90;;;;;;10319305;28;20380;-80
2022/12/13 07:37:42;;;;;;;77.07;31.97;;;-2.90;99.90;;;;;;10319767;28;20050;-81
2022/12/13 07:42:49;;;;;;;46.53;19.50;;;-2.80;99.90;;;;;;10319646;28;20042;-84
2022/12/13 07:47:50;;;;;;;48.00;19.13;;;-2.80;99.90;;;;;;10315407;28;20041;-81
2022/12/13 07:52:50;;;;;;;54.30;25.30;;;-2.80;99.90;;;;;;10320253;28;20038;-81
2022/12/13 07:57:52;;;;;;;44.33;19.57;;;-2.80;99.90;;;;;;10326684;28;20100;-81
2022/12/13 08:02:53;;;;;;;35.10;14.73;;;-2.80;99.90;;;;;;10326481;28;20041;-85
2022/12/13 08:07:53;;;;;;;56.70;23.63;;;-2.90;99.90;;;;;;10326375;28;20030;-86
2022/12/13 08:12:54;;;;;;;65.87;25.77;;;-2.90;99.90;;;;;;10324666;28;20034;-81
2022/12/13 08:17:56;;;;;;;49.73;21.37;;;-2.90;99.90;;;;;;10325754;28;20062;-81
2022/12/13 08:22:57;;;;;;;52.40;20.60;;;-2.90;99.90;;;;;;10325689;28;20074;-83
2022/12/13 08:27:58;;;;;;;24.43;11.03;;;-2.80;99.90;;;;;;10325765;28;20485;-81
2022/12/13 08:32:58;;;;;;;24.70;10.63;;;-2.90;99.90;;;;;;10325327;28;20058;-81
2022/12/13 08:37:59;;;;;;;28.87;13.10;;;-2.90;99.90;;;;;;10324590;28;20050;-81
2022/12/13 08:43:00;;;;;;;38.87;15.37;;;-2.80;99.90;;;;;;10324955;28;20026;-83
2022/12/13 08:48:01;;;;;;;50.57;21.63;;;-2.70;99.90;;;;;;10325225;28;20035;-85
2022/12/13 08:53:01;;;;;;;36.53;14.83;;;-2.50;99.90;;;;;;10324576;28;20034;-81
2022/12/13 08:58:07;;;;;;;26.90;11.03;;;-2.40;99.90;;;;;;10324111;28;20042;-81
2022/12/13 09:03:07;;;;;;;29.98;14.07;;;-2.40;99.90;;;;;;10322962;28;20026;-81
2022/12/13 09:08:08;;;;;;;53.73;20.03;;;-2.30;99.90;;;;;;10323533;28;20430;-81
2022/12/13 09:13:08;;;;;;;50.00;20.03;;;-2.30;99.90;;;;;;10321773;28;20031;-83
2022/12/13 09:18:09;;;;;;;28.80;13.60;;;-2.30;99.90;;;;;;10323643;28;20039;-83
2022/12/13 09:23:09;;;;;;;56.13;24.20;;;-2.10;99.90;;;;;;10322814;28;20023;-81
2022/12/13 09:28:10;;;;;;;42.27;16.97;;;-2.00;99.90;;;;;;10323016;28;20034;-81
2022/12/13 09:33:12;;;;;;;46.37;18.33;;;-1.90;99.90;;;;;;10323075;28;20054;-82
2022/12/13 09:38:12;;;;;;;53.47;21.97;;;-1.90;99.90;;;;;;10322127;28;20064;-84
2022/12/13 09:43:21;;;;;;;42.97;17.23;;;-2.00;99.90;;;;;;10322545;28;20037;-82
2022/12/13 09:48:22;;;;;;;45.30;20.87;;;-2.00;99.90;;;;;;10322230;28;20085;-81
2022/12/13 09:53:23;;;;;;;68.17;28.23;;;-2.00;99.90;;;;;;10321550;28;20038;-79
2022/12/13 09:58:27;;;;;;;54.53;19.77;;;-1.90;99.90;;;;;;10321993;28;20391;-81
2022/12/13 10:03:28;;;;;;;37.30;16.17;;;-1.60;99.90;;;;;;10320926;28;20030;-86
2022/12/13 10:08:40;;;;;;;46.00;22.10;;;-1.60;99.90;;;;;;10321125;28;20030;-84
2022/12/13 10:13:45;;;;;;;44.53;19.43;;;-1.40;99.90;;;;;;10321136;28;20116;-83
2022/12/13 10:18:46;;;;;;;48.67;22.33;;;-1.30;99.90;;;;;;10318879;28;20105;-87
2022/12/13 10:23:46;;;;;;;79.77;37.80;;;-1.30;99.90;;;;;;10320808;28;20096;-81
2022/12/13 10:28:47;;;;;;;47.87;22.03;;;-1.30;99.90;;;;;;10321713;28;20022;-80
2022/12/13 10:33:54;;;;;;;47.17;18.83;;;-1.50;99.90;;;;;;10320543;28;20054;-84
2022/12/13 10:38:56;;;;;;;41.00;18.13;;;-1.50;99.90;;;;;;10320197;28;20092;-80
2022/12/13 10:44:18;;;;;;;35.33;14.77;;;-1.60;99.90;;;;;;10320650;28;20117;-82
2022/12/13 10:49:25;;;;;;;45.83;19.90;;;-1.60;99.90;;;;;;10319647;28;20039;-81
2022/12/13 10:54:36;;;;;;;48.30;20.63;;;-1.70;99.90;;;;;;10320736;28;20057;-80
2022/12/13 10:59:38;;;;;;;48.07;22.37;;;-1.70;99.90;;;;;;10319459;28;20039;-80
2022/12/13 11:04:39;;;;;;;34.03;16.97;;;-1.50;99.90;;;;;;10318955;28;20031;-81
2022/12/13 11:09:39;;;;;;;45.10;20.77;;;-1.50;99.90;;;;;;10319346;28;20022;-81
2022/12/13 11:14:58;;;;;;;71.13;30.60;;;-1.60;99.90;;;;;;10320115;28;20032;-84
2022/12/13 11:20:06;;;;;;;39.70;18.67;;;-1.60;99.90;;;;;;10319630;28;20034;-83
2022/12/13 11:25:24;;;;;;;63.97;26.37;;;-1.60;99.90;;;;;;10319457;28;20041;-85
2022/12/13 11:30:45;;;;;;;49.90;22.07;;;-1.60;99.90;;;;;;10328281;28;20598;-86
2022/12/13 11:35:59;;;;;;;63.67;27.17;;;-1.60;99.90;;;;;;10328136;28;20514;-84
2022/12/13 11:41:13;;;;;;;49.57;21.47;;;-1.50;99.90;;;;;;10327416;28;20026;-81
2022/12/13 11:46:19;;;;;;;68.87;30.07;;;-1.60;99.90;;;;;;10327819;28;20042;-81
2022/12/13 11:51:37;;;;;;;84.67;36.23;;;-1.60;99.90;;;;;;10327186;28;20118;-81
2022/12/13 11:56:41;;;;;;;51.37;23.60;;;-1.60;99.90;;;;;;10326577;28;20042;-81
2022/12/13 12:02:05;;;;;;;46.67;19.90;;;-1.70;99.90;;;;;;10324368;28;20037;-81
2022/12/13 12:07:13;;;;;;;53.40;20.13;;;-1.70;99.90;;;;;;10325392;28;20194;-80
2022/12/13 12:12:33;;;;;;;103.70;53.83;;;-1.80;99.90;;;;;;10325823;28;20048;-82
2022/12/13 12:17:33;;;;;;;68.23;29.60;;;-1.90;99.90;;;;;;10325807;28;20042;-81
2022/12/13 12:22:49;;;;;;;46.13;20.80;;;-1.90;99.90;;;;;;10323914;28;20463;-81
2022/12/13 12:27:54;;;;;;;56.20;24.00;;;-2.00;99.90;;;;;;10313186;28;20038;-82
2022/12/13 12:33:24;;;;;;;69.43;28.63;;;-2.10;99.90;;;;;;10324890;28;20556;-81
2022/12/13 12:38:43;;;;;;;44.13;18.70;;;-2.10;99.90;;;;;;10324005;28;20557;-80
2022/12/13 12:43:46;;;;;;;46.37;20.73;;;-2.00;99.90;;;;;;10323621;28;20034;-80
2022/12/13 12:49:00;;;;;;;45.33;17.90;;;-2.00;99.90;;;;;;10324593;28;20085;-80
2022/12/13 12:54:26;;;;;;;52.30;22.70;;;-1.90;99.90;;;;;;10324553;28;20018;-83
2022/12/13 12:59:41;;;;;;;35.67;17.20;;;-1.90;99.90;;;;;;10324557;28;20129;-80
2022/12/13 13:04:53;;;;;;;54.58;21.52;;;-1.90;99.90;;;;;;10323281;28;20105;-80
2022/12/13 13:09:55;;;;;;;64.40;25.63;;;-1.90;99.90;;;;;;10324197;28;20030;-80
2022/12/13 13:14:56;;;;;;;36.40;17.30;;;-1.90;99.90;;;;;;10323608;28;20364;-82
2022/12/13 13:20:19;;;;;;;37.17;16.73;;;-2.00;99.90;;;;;;10321718;28;20054;-83
2022/12/13 13:25:33;;;;;;;79.00;29.10;;;-2.00;99.90;;;;;;10316895;28;20113;-81
2022/12/13 13:30:34;;;;;;;69.17;23.40;;;-2.00;99.90;;;;;;10353038;28;20042;-84
2022/12/13 13:35:41;;;;;;;70.67;27.90;;;-2.10;99.90;;;;;;10321460;28;20798;-81
2022/12/13 13:40:41;;;;;;;88.23;31.33;;;-2.10;99.90;;;;;;10321061;28;20092;-81
2022/12/13 13:45:52;;;;;;;60.93;24.67;;;-2.20;99.90;;;;;;10322103;28;20390;-81
2022/12/13 13:51:30;;;;;;;74.47;24.33;;;-2.20;99.90;;;;;;10320998;28;20092;-85
2022/12/13 13:56:52;;;;;;;72.10;28.00;;;-2.30;99.90;;;;;;10321001;28;20073;-81
2022/12/13 14:02:07;;;;;;;99.87;41.00;;;-2.40;99.90;;;;;;10320769;28;20030;-82
2022/12/13 14:07:55;;;;;;;83.43;33.63;;;-2.50;99.90;;;;;;10320331;28;20069;-86
2022/12/13 14:13:25;;;;;;;89.53;36.27;;;-2.50;99.90;;;;;;10196056;29;20086;-87
2022/12/13 14:18:43;;;;;;;79.73;32.27;;;-2.50;99.90;;;;;;10307854;28;20108;-83
2022/12/13 14:24:18;;;;;;;60.17;27.07;;;-2.60;99.90;;;;;;10318487;28;20030;-86
2022/12/13 14:29:26;;;;;;;69.80;30.90;;;-2.60;99.90;;;;;;10318675;28;20041;-84
2022/12/13 14:34:29;;;;;;;73.53;28.43;;;-2.70;99.90;;;;;;10320114;28;20053;-83
2022/12/13 14:39:32;;;;;;;78.83;33.37;;;-2.70;99.90;;;;;;10320013;28;20065;-83
2022/12/13 14:44:34;;;;;;;97.80;41.73;;;-2.80;99.90;;;;;;10321495;28;20046;-86
2022/12/13 14:49:39;;;;;;;115.70;47.27;;;-2.80;99.90;;;;;;10319137;28;20034;-87
2022/12/13 14:54:58;;;;;;;78.78;34.55;;;-2.80;99.90;;;;;;10320515;28;20030;-82
2022/12/13 15:00:20;;;;;;;63.17;27.40;;;-2.90;99.90;;;;;;10318245;28;20070;-82
2022/12/13 15:05:27;;;;;;;56.40;25.73;;;-2.90;99.90;;;;;;10316298;28;20038;-83
2022/12/13 15:10:43;;;;;;;55.97;25.00;;;-2.90;99.90;;;;;;10320504;28;20038;-83
2022/12/13 15:15:44;;;;;;;54.03;24.70;;;-3.00;99.90;;;;;;10306749;28;20030;-82
2022/12/13 15:20:47;;;;;;;60.50;28.17;;;-2.90;99.90;;;;;;10312699;28;20082;-81
2022/12/13 15:25:57;;;;;;;73.43;30.97;;;-3.00;99.90;;;;;;10319710;28;20073;-83
2022/12/13 15:30:59;;;;;;;81.67;32.87;;;-3.00;99.90;;;;;;10317425;28;20469;-82
2022/12/13 15:36:12;;;;;;;73.30;29.13;;;-3.00;99.90;;;;;;10318251;28;20446;-82
2022/12/13 15:41:18;;;;;;;64.27;29.23;;;-3.00;99.90;;;;;;10317788;28;20044;-81
2022/12/13 15:46:29;;;;;;;78.82;33.30;;;-3.00;99.90;;;;;;10318721;28;20133;-82
2022/12/13 15:51:30;;;;;;;132.73;52.50;;;-3.00;99.90;;;;;;10318428;28;20060;-80
2022/12/13 15:56:35;;;;;;;184.33;70.07;;;-3.00;99.90;;;;;;10318435;28;20049;-84
2022/12/13 16:01:36;;;;;;;148.63;62.50;;;-3.00;99.90;;;;;;10313798;28;20088;-82
2022/12/13 16:06:36;;;;;;;118.97;50.97;;;-3.00;99.90;;;;;;10308312;28;20658;-82
2022/12/13 16:12:01;;;;;;;118.97;49.90;;;-3.00;99.90;;;;;;10319529;28;20157;-81
2022/12/13 16:17:20;;;;;;;112.30;45.37;;;-3.00;99.90;;;;;;10323827;28;20386;-82
2022/12/13 16:22:22;;;;;;;94.47;41.00;;;-3.00;99.90;;;;;;10324307;28;20596;-84
2022/12/13 16:27:23;;;;;;;106.60;41.27;;;-3.10;99.90;;;;;;10325971;28;20037;-85
2022/12/13 16:32:24;;;;;;;94.10;39.40;;;-3.10;99.90;;;;;;10324285;28;20062;-81
2022/12/13 16:37:26;;;;;;;156.87;55.60;;;-3.10;99.90;;;;;;10324332;28;20140;-82
2022/12/13 16:42:26;;;;;;;116.60;47.90;;;-3.10;99.90;;;;;;10325038;28;20026;-82
2022/12/13 16:47:29;;;;;;;102.33;41.47;;;-3.10;99.90;;;;;;10322931;28;20038;-84
2022/12/13 16:52:30;;;;;;;104.87;44.20;;;-3.20;99.90;;;;;;10297341;28;20026;-82
2022/12/13 16:57:30;;;;;;;118.03;46.17;;;-3.20;99.90;;;;;;10322886;28;20497;-83
2022/12/13 17:02:31;;;;;;;103.63;41.33;;;-3.20;99.90;;;;;;10322393;28;20545;-85
2022/12/13 17:07:32;;;;;;;120.80;45.33;;;-3.30;99.90;;;;;;10322989;28;20080;-82
2022/12/13 17:12:32;;;;;;;205.30;70.80;;;-3.30;99.90;;;;;;10344983;28;20815;-82
2022/12/13 17:17:36;;;;;;;145.97;51.30;;;-3.40;99.90;;;;;;10320515;28;20041;-81
2022/12/13 17:22:37;;;;;;;107.50;40.40;;;-3.50;99.90;;;;;;10322918;28;20033;-82
2022/12/13 17:27:38;;;;;;;167.70;57.03;;;-3.60;99.90;;;;;;10322389;28;20029;-84
2022/12/13 17:32:38;;;;;;;153.60;54.27;;;-3.70;99.90;;;;;;10320889;28;20065;-82
2022/12/13 17:37:39;;;;;;;195.67;66.70;;;-4.00;99.90;;;;;;10321960;28;20038;-84
2022/12/13 17:42:40;;;;;;;209.30;66.00;;;-4.20;99.90;;;;;;10320480;28;20549;-82
2022/12/13 17:47:40;;;;;;;275.77;92.30;;;-4.50;99.90;;;;;;10321723;28;20118;-82
2022/12/13 17:52:41;;;;;;;258.43;86.30;;;-4.80;99.90;;;;;;10318902;28;20493;-83
2022/12/13 17:57:42;;;;;;;321.63;113.83;;;-5.00;99.90;;;;;;10320499;28;20502;-82
2022/12/13 18:02:42;;;;;;;222.70;83.70;;;-5.30;99.90;;;;;;10319826;28;20046;-82
2022/12/13 18:07:43;;;;;;;248.23;99.47;;;-5.60;99.90;;;;;;10320160;28;20067;-82
2022/12/13 18:12:43;;;;;;;200.43;86.43;;;-5.80;99.90;;;;;;10351158;28;20616;-85
2022/12/13 18:17:44;;;;;;;174.57;73.97;;;-6.00;99.90;;;;;;10320143;28;20038;-84
2022/12/13 18:22:45;;;;;;;130.83;54.47;;;-6.10;99.90;;;;;;10317602;28;20592;-85
2022/12/13 18:27:46;;;;;;;125.13;50.60;;;-6.10;99.90;;;;;;10320008;28;20034;-84
2022/12/13 18:32:46;;;;;;;118.43;50.73;;;-6.20;99.90;;;;;;10319479;28;20085;-85
2022/12/13 18:37:47;;;;;;;138.90;53.17;;;-6.30;99.90;;;;;;10317282;28;20049;-85
2022/12/13 18:42:48;;;;;;;129.77;52.57;;;-6.30;99.90;;;;;;10316844;28;20034;-85
2022/12/13 18:47:48;;;;;;;140.83;58.37;;;-6.40;99.90;;;;;;10319448;28;20034;-85
2022/12/13 18:52:49;;;;;;;140.30;62.37;;;-6.30;99.90;;;;;;10317056;28;20038;-83
2022/12/13 18:57:50;;;;;;;170.53;75.00;;;-6.30;99.90;;;;;;10318403;28;20045;-82
2022/12/13 19:02:51;;;;;;;170.27;75.03;;;-6.40;99.90;;;;;;10317842;28;20390;-81
2022/12/13 19:07:52;;;;;;;281.77;115.50;;;-6.40;99.90;;;;;;10319300;28;20042;-82
2022/12/13 19:12:52;;;;;;;266.37;112.63;;;-6.60;99.90;;;;;;10318154;28;20045;-82
2022/12/13 19:17:53;;;;;;;256.03;113.60;;;-6.70;99.90;;;;;;10317365;28;20054;-81
2022/12/13 19:22:53;;;;;;;250.37;114.63;;;-6.80;99.90;;;;;;10319211;28;20115;-81
2022/12/13 19:27:55;;;;;;;220.70;101.57;;;-6.90;99.90;;;;;;10319510;28;20042;-82
2022/12/13 19:32:56;;;;;;;213.33;95.00;;;-6.90;99.90;;;;;;10318001;28;20074;-82
2022/12/13 19:37:56;;;;;;;191.07;84.33;;;-6.90;99.90;;;;;;10318750;28;20961;-81
2022/12/13 19:42:57;;;;;;;173.07;81.23;;;-6.80;99.90;;;;;;10318264;28;20038;-82
2022/12/13 19:47:58;;;;;;;178.23;80.30;;;-6.80;99.90;;;;;;10321022;28;20065;-82
2022/12/13 19:52:58;;;;;;;196.90;94.10;;;-6.80;99.90;;;;;;10326111;28;20042;-84
2022/12/13 19:57:59;;;;;;;247.67;114.33;;;-6.90;99.90;;;;;;10325410;28;20046;-82
2022/12/13 20:03:00;;;;;;;254.33;117.43;;;-7.00;99.90;;;;;;10324040;28;20030;-83
2022/12/13 20:08:00;;;;;;;264.17;117.73;;;-7.10;99.90;;;;;;10321999;28;20038;-81
2022/12/13 20:13:01;;;;;;;260.80;111.50;;;-7.30;99.90;;;;;;10325175;28;20034;-82
2022/12/13 20:18:02;;;;;;;232.03;104.80;;;-7.40;99.90;;;;;;10322377;28;20516;-81
2022/12/13 20:23:02;;;;;;;241.87;105.03;;;-7.50;99.90;;;;;;10325406;28;20076;-81
2022/12/13 20:28:04;;;;;;;233.53;102.17;;;-7.50;99.90;;;;;;10324156;28;20049;-82
2022/12/13 20:33:05;;;;;;;206.47;84.73;;;-7.50;99.90;;;;;;10320982;28;20055;-82
2022/12/13 20:38:05;;;;;;;237.30;92.00;;;-7.50;99.90;;;;;;10308604;28;20046;-82
2022/12/13 20:43:06;;;;;;;258.40;103.83;;;-7.60;99.90;;;;;;10316345;28;20039;-82
2022/12/13 20:48:06;;;;;;;264.17;109.40;;;-7.70;99.90;;;;;;10323323;28;20042;-82
2022/12/13 20:53:07;;;;;;;245.10;96.90;;;-7.80;99.90;;;;;;10323786;28;20038;-81
2022/12/13 20:58:07;;;;;;;206.77;84.10;;;-7.80;99.90;;;;;;10322706;28;20046;-82
2022/12/13 21:03:08;;;;;;;210.30;82.20;;;-7.90;99.90;;;;;;10315612;28;20034;-82
2022/12/13 21:13:28;;;;;;;232.53;95.97;;;-8.00;99.90;;;;;;10323540;28;20046;-82
2022/12/13 21:18:28;;;;;;;236.97;96.37;;;-8.00;99.90;;;;;;10321929;28;20046;-82
2022/12/13 21:23:29;;;;;;;237.63;97.73;;;-8.00;99.90;;;;;;10322588;28;20030;-83
2022/12/13 21:28:30;;;;;;;188.47;72.10;;;-8.00;99.90;;;;;;10321889;28;20037;-82
2022/12/13 21:33:33;;;;;;;192.57;78.20;;;-7.90;99.90;;;;;;10320627;28;20042;-82
2022/12/13 21:38:33;;;;;;;164.77;65.80;;;-8.00;99.90;;;;;;10321909;28;20046;-82
2022/12/13 21:43:37;;;;;;;131.20;49.20;;;-8.00;99.90;;;;;;10322169;28;20042;-82
2022/12/13 21:48:40;;;;;;;125.00;47.53;;;-8.00;99.90;;;;;;10320929;28;20037;-81
2022/12/13 21:53:41;;;;;;;112.37;43.60;;;-8.00;99.90;;;;;;10321004;28;20038;-82
2022/12/13 22:04:01;;;;;;;139.30;48.00;;;-8.00;99.90;;;;;;10320137;28;20050;-82
2022/12/13 22:09:02;;;;;;;127.03;47.43;;;-8.00;99.90;;;;;;10320918;28;20046;-82
2022/12/13 22:14:03;;;;;;;130.40;49.17;;;-8.10;99.90;;;;;;10321272;28;20030;-81
2022/12/13 22:19:03;;;;;;;153.03;60.20;;;-8.10;99.90;;;;;;10318821;28;20053;-82
2022/12/13 22:24:05;;;;;;;130.80;49.60;;;-8.20;99.90;;;;;;10320204;28;20375;-82
2022/12/13 22:29:05;;;;;;;138.17;52.23;;;-8.30;99.90;;;;;;10320600;28;20084;-82
2022/12/13 22:34:06;;;;;;;149.83;59.27;;;-8.30;99.90;;;;;;10319768;28;20073;-81
2022/12/13 22:39:15;;;;;;;136.50;56.33;;;-8.20;99.90;;;;;;10319285;28;20061;-82
2022/12/13 22:44:18;;;;;;;178.57;64.93;;;-8.30;99.90;;;;;;10319849;28;20034;-82
2022/12/13 22:49:18;;;;;;;666.67;239.07;;;-8.40;99.90;;;;;;10319408;28;20034;-81
2022/12/13 22:54:19;;;;;;;362.03;128.50;;;-8.50;99.90;;;;;;10320317;28;20034;-82
2022/12/13 22:59:20;;;;;;;232.73;91.67;;;-8.50;99.90;;;;;;10319123;28;20064;-83
2022/12/13 23:04:20;;;;;;;198.00;78.00;;;-8.40;99.90;;;;;;10319600;28;20038;-82
2022/12/13 23:09:21;;;;;;;215.80;91.40;;;-8.50;99.90;;;;;;10320294;28;20056;-83
2022/12/13 23:14:30;;;;;;;247.47;109.07;;;-8.50;99.90;;;;;;10319844;28;20043;-81
2022/12/13 23:19:34;;;;;;;229.50;95.07;;;-8.70;99.90;;;;;;10319052;28;20038;-82
2022/12/13 23:24:35;;;;;;;183.50;75.37;;;-8.80;99.90;;;;;;10324284;28;20414;-82
2022/12/13 23:29:35;;;;;;;218.10;88.97;;;-8.80;99.90;;;;;;10326953;28;20038;-82
2022/12/13 23:34:36;;;;;;;212.80;83.80;;;-8.80;99.90;;;;;;10327355;28;20054;-82
2022/12/13 23:39:36;;;;;;;305.10;118.73;;;-8.70;99.90;;;;;;10327228;28;20058;-83
2022/12/13 23:44:37;;;;;;;275.90;107.63;;;-8.80;99.90;;;;;;10326879;28;20027;-81
2022/12/13 23:49:38;;;;;;;263.47;103.17;;;-9.00;99.90;;;;;;10324690;28;20117;-83
2022/12/13 23:54:38;;;;;;;252.87;104.13;;;-9.20;99.90;;;;;;10326926;28;20080;-81
2022/12/13 23:59:39;;;;;;;221.53;91.57;;;-9.20;99.90;;;;;;10326310;28;20056;-82
